Time;durP1;ratioP1;P1;durP2;ratioP2;P2;SDS_P1;SDS_P2;PMS_P1;PMS_P2;Temp;Humidity;BMP_temperature;BMP_pressure;BME280_temperature;BME280_humidity;BME280_pressure;Samples;Min_cycle;Max_cycle;Signal;HPM_P1;HPM_P2
2021/07/09 00:01:04;;;;;;;;;6.50;5.50;;;;;-145.01;100.00;59511.53;5076344;28;45328;-74
2021/07/09 00:03:29;;;;;;;;;4.75;4.25;;;;;-145.01;100.00;59511.53;5077675;27;45441;-74
2021/07/09 00:05:55;;;;;;;;;9.75;7.00;;;;;-145.01;100.00;59511.53;5078864;27;46518;-74
2021/07/09 00:08:20;;;;;;;;;6.00;6.00;;;;;-145.01;100.00;59511.53;5076351;27;45449;-74
2021/07/09 00:10:46;;;;;;;;;5.75;5.75;;;;;-145.01;100.00;59511.53;5077813;27;45415;-74
2021/07/09 00:13:11;;;;;;;;;6.00;6.00;;;;;-145.01;100.00;59511.53;5077093;28;45398;-74
2021/07/09 00:15:36;;;;;;;;;4.75;4.75;;;;;-145.01;100.00;59511.53;5077428;27;47067;-74
2021/07/09 00:18:03;;;;;;;;;5.50;5.50;;;;;-145.01;100.00;59511.53;5077390;27;45417;-74
2021/07/09 00:20:28;;;;;;;;;10.75;7.00;;;;;-145.01;100.00;59511.53;5077561;27;45547;-74
2021/07/09 00:22:54;;;;;;;;;5.00;5.00;;;;;-145.01;100.00;59511.53;5077034;27;45330;-74
2021/07/09 00:25:21;;;;;;;;;6.50;6.50;;;;;-145.01;100.00;59511.53;5076344;27;45946;-74
2021/07/09 00:27:47;;;;;;;;;7.00;5.75;;;;;-145.01;100.00;59511.53;5077305;27;45572;-74
2021/07/09 00:30:13;;;;;;;;;5.75;5.75;;;;;-145.01;100.00;59511.53;5077480;27;45631;-75
2021/07/09 00:32:38;;;;;;;;;6.50;6.50;;;;;-145.01;100.00;59511.53;5078387;27;45303;-74
2021/07/09 00:35:04;;;;;;;;;6.00;4.50;;;;;-145.01;100.00;59511.53;5078613;27;46073;-75
2021/07/09 00:37:29;;;;;;;;;4.75;4.50;;;;;-145.01;100.00;59511.53;5076651;27;45277;-74
2021/07/09 00:39:55;;;;;;;;;5.00;5.00;;;;;-145.01;100.00;59511.53;5076719;27;45528;-74
2021/07/09 00:42:20;;;;;;;;;9.25;7.25;;;;;-145.01;100.00;59511.53;5077252;27;45598;-75
2021/07/09 00:44:45;;;;;;;;;4.25;4.25;;;;;-145.01;100.00;59511.53;5076989;27;47107;-74
2021/07/09 00:47:11;;;;;;;;;7.00;5.50;;;;;-145.01;100.00;59511.53;5077060;27;45426;-75
2021/07/09 00:49:36;;;;;;;;;6.75;6.00;;;;;-145.01;100.00;59511.53;5077060;27;45336;-74
2021/07/09 00:52:02;;;;;;;;;6.50;5.00;;;;;-145.01;100.00;59511.53;5076412;27;45336;-75
2021/07/09 00:54:27;;;;;;;;;7.50;7.50;;;;;-145.01;100.00;59511.53;5077277;27;46233;-76
2021/07/09 00:56:53;;;;;;;;;6.00;6.00;;;;;-145.01;100.00;59511.53;5077314;27;45421;-76
2021/07/09 00:59:23;;;;;;;;;6.00;5.25;;;;;-145.01;100.00;59511.53;5077655;27;45247;-76
2021/07/09 01:01:48;;;;;;;;;5.25;4.00;;;;;-145.01;100.00;59511.53;5079857;27;45357;-76
2021/07/09 01:04:15;;;;;;;;;7.50;6.00;;;;;-145.01;100.00;59511.53;5076374;27;46824;-76
2021/07/09 01:06:40;;;;;;;;;7.50;5.00;;;;;-145.01;100.00;59511.53;5077430;27;45486;-75
2021/07/09 01:09:05;;;;;;;;;5.25;5.25;;;;;-145.01;100.00;59511.53;5077331;27;45428;-76
2021/07/09 01:11:31;;;;;;;;;7.00;6.00;;;;;-145.01;100.00;59511.53;5077362;27;45474;-76
2021/07/09 01:13:57;;;;;;;;;7.00;5.75;;;;;-145.01;100.00;59511.53;5077620;27;46117;-75
2021/07/09 01:16:22;;;;;;;;;7.00;7.00;;;;;-145.01;100.00;59511.53;5076481;27;45398;-75
2021/07/09 01:18:48;;;;;;;;;8.25;6.25;;;;;-145.01;100.00;59511.53;5077108;27;45417;-75
2021/07/09 01:21:14;;;;;;;;;9.25;9.00;;;;;-145.01;100.00;59511.53;5076775;27;45473;-75
2021/07/09 01:23:41;;;;;;;;;3.50;2.00;;;;;-145.01;100.00;59511.53;5076828;27;45557;-74
2021/07/09 01:26:08;;;;;;;;;4.75;4.75;;;;;-145.01;100.00;59511.53;5077073;27;45352;-75
2021/07/09 01:28:35;;;;;;;;;4.50;4.50;;;;;-145.01;100.00;59511.53;5077103;27;45248;-75
2021/07/09 01:31:00;;;;;;;;;7.00;6.00;;;;;-145.01;100.00;59511.53;5076379;28;45488;-75
2021/07/09 01:33:26;;;;;;;;;5.00;5.00;;;;;-145.01;100.00;59511.53;5076450;27;46218;-76
2021/07/09 01:35:52;;;;;;;;;8.50;6.25;;;;;-145.01;100.00;59511.53;5076320;27;45520;-75
2021/07/09 01:38:17;;;;;;;;;8.50;8.50;;;;;-145.01;100.00;59511.53;5077129;27;45332;-75
2021/07/09 01:40:42;;;;;;;;;4.75;4.75;;;;;-145.01;100.00;59511.53;5077262;27;45423;-75
2021/07/09 01:43:08;;;;;;;;;6.75;5.75;;;;;-145.01;100.00;59511.53;5076032;27;47338;-75
2021/07/09 01:45:34;;;;;;;;;5.00;5.00;;;;;-145.01;100.00;59511.53;5076457;27;45826;-75
2021/07/09 01:48:00;;;;;;;;;5.50;5.50;;;;;-145.01;100.00;59511.53;5076663;27;45373;-75
2021/07/09 01:50:26;;;;;;;;;4.25;4.25;;;;;-145.01;100.00;59511.53;5076116;27;45490;-75
2021/07/09 01:52:52;;;;;;;;;7.00;5.00;;;;;-145.01;100.00;59511.53;5076467;27;48812;-75
2021/07/09 01:55:19;;;;;;;;;6.25;5.00;;;;;-145.01;100.00;59511.53;5075751;27;45294;-75
2021/07/09 01:57:45;;;;;;;;;6.75;5.75;;;;;-145.01;100.00;59511.53;5076893;27;45452;-75
2021/07/09 02:00:16;;;;;;;;;6.25;4.50;;;;;-145.01;100.00;59511.53;5076478;27;45487;-75
2021/07/09 02:02:42;;;;;;;;;8.50;6.75;;;;;-145.01;100.00;59511.53;5076614;27;45328;-74
2021/07/09 02:05:16;;;;;;;;;5.00;4.50;;;;;-145.01;100.00;59511.53;5076107;27;45588;-75
2021/07/09 02:07:44;;;;;;;;;11.25;6.75;;;;;-145.01;100.00;59511.53;5076748;27;45263;-74
2021/07/09 02:10:11;;;;;;;;;7.50;5.50;;;;;-145.01;100.00;59511.53;5074390;28;45311;-74
2021/07/09 02:12:37;;;;;;;;;4.25;4.25;;;;;-145.01;100.00;59511.53;5076235;27;45358;-76
2021/07/09 02:15:08;;;;;;;;;7.00;5.50;;;;;-145.01;100.00;59511.53;5076161;27;45456;-76
2021/07/09 02:17:34;;;;;;;;;5.25;5.25;;;;;-145.01;100.00;59511.53;5076425;27;45246;-75
2021/07/09 02:20:00;;;;;;;;;4.50;4.50;;;;;-145.01;100.00;59511.53;5076003;27;45293;-74
2021/07/09 02:22:28;;;;;;;;;4.75;4.75;;;;;-145.01;100.00;59511.53;5075673;27;46146;-74
2021/07/09 02:24:53;;;;;;;;;7.00;7.00;;;;;-145.01;100.00;59511.53;5075332;27;45331;-74
2021/07/09 02:27:18;;;;;;;;;7.00;6.50;;;;;-145.01;100.00;59511.53;5076151;27;45361;-74
2021/07/09 02:29:45;;;;;;;;;8.25;6.00;;;;;-145.01;100.00;59511.53;5076189;27;45503;-76
2021/07/09 02:32:12;;;;;;;;;5.00;5.00;;;;;-145.01;100.00;59511.53;5080279;27;47047;-76
2021/07/09 02:34:38;;;;;;;;;6.00;5.75;;;;;-145.01;100.00;59511.53;5082569;27;45337;-77
2021/07/09 02:37:06;;;;;;;;;7.50;6.00;;;;;-145.01;100.00;59511.53;5082384;27;45530;-73
2021/07/09 02:39:32;;;;;;;;;5.75;5.75;;;;;-145.01;100.00;59511.53;5082714;27;45433;-74
2021/07/09 02:41:59;;;;;;;;;7.75;5.50;;;;;-145.01;100.00;59511.53;5081537;27;46482;-74
2021/07/09 02:44:25;;;;;;;;;6.00;6.00;;;;;-145.01;100.00;59511.53;5082757;27;45374;-76
2021/07/09 02:46:52;;;;;;;;;8.00;6.00;;;;;-145.01;100.00;59511.53;5083104;27;45567;-73
2021/07/09 02:49:19;;;;;;;;;5.50;5.50;;;;;-145.01;100.00;59511.53;5081639;27;45491;-76
2021/07/09 02:51:44;;;;;;;;;6.75;6.50;;;;;-145.01;100.00;59511.53;5082628;27;46431;-76
2021/07/09 02:54:10;;;;;;;;;5.75;5.75;;;;;-145.01;100.00;59511.53;5082411;27;45534;-76
2021/07/09 02:56:35;;;;;;;;;6.25;6.25;;;;;-145.01;100.00;59511.53;5082920;27;45605;-76
2021/07/09 02:59:01;;;;;;;;;6.00;5.00;;;;;-145.01;100.00;59511.53;5080296;27;47729;-76
2021/07/09 03:01:26;;;;;;;;;8.75;4.75;;;;;-145.01;100.00;59511.53;5081752;27;45950;-74
2021/07/09 03:03:55;;;;;;;;;4.25;4.25;;;;;-145.01;100.00;59511.53;5085166;27;45358;-74
2021/07/09 03:06:21;;;;;;;;;7.75;6.00;;;;;-145.01;100.00;59511.53;5082925;27;45428;-75
2021/07/09 03:08:47;;;;;;;;;6.00;4.75;;;;;-145.01;100.00;59511.53;5082539;27;45444;-75
2021/07/09 03:11:13;;;;;;;;;9.25;8.00;;;;;-145.01;100.00;59511.53;5084195;27;45304;-75
2021/07/09 03:13:39;;;;;;;;;6.50;5.00;;;;;-145.01;100.00;59511.53;5082441;27;45330;-75
2021/07/09 03:16:04;;;;;;;;;7.50;6.25;;;;;-145.01;100.00;59511.53;5081083;27;45453;-74
2021/07/09 03:18:29;;;;;;;;;7.75;6.25;;;;;-145.01;100.00;59511.53;5082356;27;45415;-74
2021/07/09 03:20:55;;;;;;;;;9.50;6.75;;;;;-145.01;100.00;59511.53;5081410;27;46266;-75
2021/07/09 03:23:21;;;;;;;;;9.25;9.25;;;;;-145.01;100.00;59511.53;5082081;27;45650;-75
2021/07/09 03:25:46;;;;;;;;;9.00;7.25;;;;;-145.01;100.00;59511.53;5082231;27;45614;-76
2021/07/09 03:28:12;;;;;;;;;8.00;6.00;;;;;-145.01;100.00;59511.53;5081483;28;45572;-75
2021/07/09 03:30:37;;;;;;;;;8.25;7.00;;;;;-145.01;100.00;59511.53;5081961;27;46260;-76
2021/07/09 03:33:03;;;;;;;;;8.50;7.75;;;;;-145.01;100.00;59511.53;5083296;27;45333;-75
2021/07/09 03:35:28;;;;;;;;;8.00;7.00;;;;;-145.01;100.00;59511.53;5084164;27;45395;-74
2021/07/09 03:37:53;;;;;;;;;8.50;7.00;;;;;-145.01;100.00;59511.53;5082538;27;45376;-74
2021/07/09 03:40:19;;;;;;;;;10.00;8.00;;;;;-145.01;100.00;59511.53;5080947;27;50065;-75
2021/07/09 03:42:44;;;;;;;;;8.50;8.25;;;;;-145.01;100.00;59511.53;5080384;27;45347;-74
2021/07/09 03:45:10;;;;;;;;;7.25;7.25;;;;;-145.01;100.00;59511.53;5078001;27;45425;-74
2021/07/09 03:47:35;;;;;;;;;6.00;6.00;;;;;-145.01;100.00;59511.53;5078728;27;45544;-74
2021/07/09 03:50:00;;;;;;;;;11.25;9.00;;;;;-145.01;100.00;59511.53;5078510;27;45977;-73
2021/07/09 03:52:26;;;;;;;;;8.25;8.25;;;;;-145.01;100.00;59511.53;5078158;27;45253;-76
2021/07/09 03:54:51;;;;;;;;;7.50;7.50;;;;;-145.01;100.00;59511.53;5078055;27;45154;-76
2021/07/09 03:57:16;;;;;;;;;6.75;6.75;;;;;-145.01;100.00;59511.53;5078674;27;45285;-75
2021/07/09 03:59:42;;;;;;;;;9.00;6.25;;;;;-145.01;100.00;59511.53;5077743;27;46376;-74
2021/07/09 04:02:07;;;;;;;;;9.75;9.75;;;;;-145.01;100.00;59511.53;5078515;27;45323;-74
2021/07/09 04:04:32;;;;;;;;;5.75;5.75;;;;;-145.01;100.00;59511.53;5078706;27;45510;-74
2021/07/09 04:06:58;;;;;;;;;9.75;8.00;;;;;-145.01;100.00;59511.53;5077936;28;45444;-74
2021/07/09 04:09:23;;;;;;;;;10.00;7.50;;;;;-145.01;100.00;59511.53;5077876;27;45550;-75
2021/07/09 04:11:49;;;;;;;;;8.25;7.75;;;;;-145.01;100.00;59511.53;5077706;27;45257;-75
2021/07/09 04:14:14;;;;;;;;;10.50;9.00;;;;;-145.01;100.00;59511.53;5077392;27;45461;-74
2021/07/09 04:16:39;;;;;;;;;13.75;13.50;;;;;-145.01;100.00;59511.53;5078196;27;45245;-75
2021/07/09 04:19:05;;;;;;;;;12.75;11.00;;;;;-145.01;100.00;59511.53;5076965;28;46043;-75
2021/07/09 04:21:30;;;;;;;;;7.00;7.00;;;;;-145.01;100.00;59511.53;5077729;27;45600;-74
2021/07/09 04:23:56;;;;;;;;;10.00;9.25;;;;;-145.01;100.00;59511.53;5077884;27;45416;-74
2021/07/09 04:26:21;;;;;;;;;9.00;9.00;;;;;-145.01;100.00;59511.53;5077401;27;45392;-73
2021/07/09 04:28:46;;;;;;;;;9.00;8.50;;;;;-145.01;100.00;59511.53;5078336;27;45322;-74
2021/07/09 04:31:12;;;;;;;;;12.50;11.50;;;;;-145.01;100.00;59511.53;5077092;28;45499;-74
2021/07/09 04:33:38;;;;;;;;;7.00;6.25;;;;;-145.01;100.00;59511.53;5077545;27;45285;-75
2021/07/09 04:36:03;;;;;;;;;8.75;6.75;;;;;-145.01;100.00;59511.53;5077580;27;45429;-75
2021/07/09 04:38:29;;;;;;;;;6.50;5.75;;;;;-145.01;100.00;59511.53;5077028;27;45429;-75
2021/07/09 04:40:54;;;;;;;;;8.50;7.00;;;;;-145.01;100.00;59511.53;5079838;27;45485;-75
2021/07/09 04:43:19;;;;;;;;;11.50;9.75;;;;;-145.01;100.00;59511.53;5076077;27;45309;-75
2021/07/09 04:45:45;;;;;;;;;11.75;11.00;;;;;-145.01;100.00;59511.53;5075820;27;45391;-75
2021/07/09 04:48:10;;;;;;;;;12.00;10.75;;;;;-145.01;100.00;59511.53;5077026;27;45575;-75
2021/07/09 04:50:36;;;;;;;;;9.00;8.50;;;;;-145.01;100.00;59511.53;5077140;27;45495;-76
2021/07/09 04:53:03;;;;;;;;;8.75;8.75;;;;;-145.01;100.00;59511.53;5077260;27;45485;-74
2021/07/09 04:55:28;;;;;;;;;7.25;7.25;;;;;-145.01;100.00;59511.53;5076840;27;45425;-74
2021/07/09 04:57:54;;;;;;;;;10.00;9.25;;;;;-145.01;100.00;59511.53;5075929;27;45315;-75
2021/07/09 05:00:19;;;;;;;;;9.50;8.50;;;;;-145.01;100.00;59511.53;5076977;27;45700;-75
2021/07/09 05:02:45;;;;;;;;;11.75;10.50;;;;;-145.01;100.00;59511.53;5076168;27;45467;-74
2021/07/09 05:05:13;;;;;;;;;10.75;8.25;;;;;-145.01;100.00;59511.53;5071624;27;45481;-74
2021/07/09 05:07:39;;;;;;;;;10.00;6.75;;;;;-145.01;100.00;59511.53;5077342;27;47019;-74
2021/07/09 05:10:05;;;;;;;;;10.50;10.25;;;;;-145.01;100.00;59511.53;5075849;27;45395;-74
2021/07/09 05:12:30;;;;;;;;;10.25;10.25;;;;;-145.01;100.00;59511.53;5076759;27;45412;-74
2021/07/09 05:14:56;;;;;;;;;8.25;7.25;;;;;-145.01;100.00;59511.53;5079255;27;45585;-74
2021/07/09 05:17:21;;;;;;;;;9.25;8.25;;;;;-145.01;100.00;59511.53;5076601;27;45614;-75
2021/07/09 05:19:47;;;;;;;;;12.25;10.00;;;;;-145.01;100.00;59511.53;5076945;27;45465;-75
2021/07/09 05:22:12;;;;;;;;;12.25;11.25;;;;;-145.01;100.00;59511.53;5090261;22;45318;-73
2021/07/09 05:24:38;;;;;;;;;10.25;8.25;;;;;-145.01;100.00;59511.53;5059624;28;45571;-73
2021/07/09 05:27:05;;;;;;;;;10.50;9.50;;;;;-145.01;100.00;59511.53;5075420;27;47015;-73
2021/07/09 05:29:30;;;;;;;;;10.25;8.75;;;;;-145.01;100.00;59511.53;5076598;27;45451;-72
2021/07/09 05:31:55;;;;;;;;;9.75;8.00;;;;;-145.01;100.00;59511.53;5057494;28;45296;-72
2021/07/09 05:34:21;;;;;;;;;7.50;7.50;;;;;-145.01;100.00;59511.53;5074920;27;45348;-72
2021/07/09 05:36:46;;;;;;;;;12.00;8.75;;;;;-145.01;100.00;59511.53;5076057;27;45328;-72
2021/07/09 05:39:15;;;;;;;;;11.25;10.00;;;;;-145.01;100.00;59511.53;5076740;27;45227;-73
2021/07/09 05:41:40;;;;;;;;;14.50;13.00;;;;;-145.01;100.00;59511.53;5075767;27;45683;-72
2021/07/09 05:44:06;;;;;;;;;11.50;10.50;;;;;-145.01;100.00;59511.53;5076115;27;44838;-72
2021/07/09 05:46:32;;;;;;;;;15.00;11.25;;;;;-145.01;100.00;59511.53;5040806;27;47146;-71
2021/07/09 05:48:57;;;;;;;;;11.00;9.00;;;;;-145.01;100.00;59511.53;5075562;28;45373;-72
2021/07/09 05:51:23;;;;;;;;;12.25;10.00;;;;;-145.01;100.00;59511.53;5075807;27;45456;-73
2021/07/09 05:53:48;;;;;;;;;16.25;13.00;;;;;-145.01;100.00;59511.53;5073446;27;45441;-73
2021/07/09 05:56:13;;;;;;;;;14.50;11.25;;;;;-145.01;100.00;59511.53;5065638;27;46395;-73
2021/07/09 05:58:39;;;;;;;;;17.00;11.75;;;;;-145.01;100.00;59511.53;5068836;27;45399;-73
2021/07/09 06:01:04;;;;;;;;;9.50;9.00;;;;;-145.01;100.00;59511.53;5049039;28;45413;-72
2021/07/09 06:03:30;;;;;;;;;10.50;10.25;;;;;-145.01;100.00;59511.53;5069038;27;45460;-72
2021/07/09 06:05:55;;;;;;;;;16.75;14.75;;;;;-145.01;100.00;59511.53;5069366;27;47389;-72
2021/07/09 06:08:21;;;;;;;;;13.75;10.75;;;;;-145.01;100.00;59511.53;5066162;27;45572;-74
2021/07/09 06:10:46;;;;;;;;;14.00;11.50;;;;;-145.01;100.00;59511.53;5066377;27;45434;-72
2021/07/09 06:13:12;;;;;;;;;14.75;13.25;;;;;-145.01;100.00;59511.53;5065333;28;45324;-71
2021/07/09 06:15:37;;;;;;;;;15.00;12.00;;;;;-145.01;100.00;59511.53;5071548;27;45434;-73
2021/07/09 06:18:03;;;;;;;;;14.25;12.00;;;;;-145.01;100.00;59511.53;5070099;27;45479;-73
2021/07/09 06:20:28;;;;;;;;;14.75;11.25;;;;;-145.01;100.00;59511.53;5068860;27;45791;-72
2021/07/09 06:22:53;;;;;;;;;15.25;14.25;;;;;-145.01;100.00;59511.53;5062784;27;45392;-70
2021/07/09 06:25:19;;;;;;;;;15.50;14.75;;;;;-145.01;100.00;59511.53;5059312;27;46425;-74
2021/07/09 06:27:44;;;;;;;;;9.50;9.50;;;;;-145.01;100.00;59511.53;5065709;27;45574;-73
2021/07/09 06:30:11;;;;;;;;;11.50;8.75;;;;;-145.01;100.00;59511.53;5065097;27;45511;-73
2021/07/09 06:32:36;;;;;;;;;12.50;9.00;;;;;-145.01;100.00;59511.53;5064343;27;45373;-73
2021/07/09 06:35:04;;;;;;;;;12.00;11.00;;;;;-145.01;100.00;59511.53;5062423;27;46480;-73
2021/07/09 06:37:30;;;;;;;;;14.50;11.25;;;;;-145.01;100.00;59511.53;5063984;27;45300;-73
2021/07/09 06:39:55;;;;;;;;;13.25;12.00;;;;;-145.01;100.00;59511.53;5067712;28;45447;-72
2021/07/09 06:42:21;;;;;;;;;11.25;11.00;;;;;-145.01;100.00;59511.53;5056269;27;45469;-72
2021/07/09 06:44:46;;;;;;;;;14.25;12.25;;;;;-145.01;100.00;59511.53;5063748;27;45327;-72
2021/07/09 06:47:12;;;;;;;;;30.75;29.50;;;;;-145.01;100.00;59511.53;5067642;27;47170;-72
2021/07/09 06:49:37;;;;;;;;;14.75;12.25;;;;;-145.01;100.00;59511.53;5065903;27;45552;-73
2021/07/09 06:52:03;;;;;;;;;9.75;9.75;;;;;-145.01;100.00;59511.53;5064823;27;45420;-73
2021/07/09 06:54:28;;;;;;;;;13.75;11.00;;;;;-145.01;100.00;59511.53;5064781;27;46544;-74
2021/07/09 06:56:53;;;;;;;;;6.25;6.25;;;;;-145.01;100.00;59511.53;5051803;28;45446;-73
2021/07/09 06:59:19;;;;;;;;;8.25;7.50;;;;;-145.01;100.00;59511.53;5068553;27;45767;-73
2021/07/09 07:01:47;;;;;;;;;11.00;11.00;;;;;-145.01;100.00;59511.53;5066408;27;45548;-71
2021/07/09 07:04:14;;;;;;;;;20.25;16.00;;;;;-145.01;100.00;59511.53;5061449;28;46301;-75
2021/07/09 07:06:40;;;;;;;;;12.25;10.00;;;;;-145.01;100.00;59511.53;5061577;27;45371;-72
2021/07/09 07:09:05;;;;;;;;;15.50;13.75;;;;;-145.01;100.00;59511.53;5068043;27;45339;-72
2021/07/09 07:11:30;;;;;;;;;9.25;9.25;;;;;-145.01;100.00;59511.53;5045769;28;45644;-74
2021/07/09 07:13:56;;;;;;;;;8.75;8.75;;;;;-145.01;100.00;59511.53;5067422;27;46278;-73
2021/07/09 07:16:21;;;;;;;;;11.75;9.75;;;;;-145.01;100.00;59511.53;5058115;27;45756;-73
2021/07/09 07:18:46;;;;;;;;;18.00;17.00;;;;;-145.01;100.00;59511.53;5069691;28;45429;-73
2021/07/09 07:21:12;;;;;;;;;11.75;11.25;;;;;-145.01;100.00;59511.53;5069311;27;45537;-72
2021/07/09 07:23:37;;;;;;;;;8.00;8.00;;;;;-145.01;100.00;59511.53;5076653;27;45597;-73
2021/07/09 07:26:03;;;;;;;;;11.25;9.50;;;;;-145.01;100.00;59511.53;5072255;27;45497;-72
2021/07/09 07:28:28;;;;;;;;;9.50;9.50;;;;;-145.01;100.00;59511.53;5070998;27;45418;-73
2021/07/09 07:30:54;;;;;;;;;16.25;15.25;;;;;-145.01;100.00;59511.53;5050206;28;45540;-72
2021/07/09 07:33:19;;;;;;;;;10.25;8.75;;;;;-145.01;100.00;59511.53;5070700;27;45456;-71
2021/07/09 07:35:45;;;;;;;;;10.75;9.00;;;;;-145.01;100.00;59511.53;5069687;27;45387;-71
2021/07/09 07:38:10;;;;;;;;;10.50;9.50;;;;;-145.01;100.00;59511.53;5073655;27;45585;-72
2021/07/09 07:40:36;;;;;;;;;14.00;13.75;;;;;-145.01;100.00;59511.53;5077192;27;45377;-72
2021/07/09 07:43:03;;;;;;;;;14.25;13.00;;;;;-145.01;100.00;59511.53;5077062;28;46378;-72
2021/07/09 07:45:29;;;;;;;;;9.25;8.00;;;;;-145.01;100.00;59511.53;5077811;27;45320;-72
2021/07/09 07:47:54;;;;;;;;;10.75;8.25;;;;;-145.01;100.00;59511.53;5079215;27;45593;-72
2021/07/09 07:50:21;;;;;;;;;12.25;9.75;;;;;-145.01;100.00;59511.53;5076858;27;45539;-71
2021/07/09 07:52:48;;;;;;;;;11.75;10.00;;;;;-145.01;100.00;59511.53;5076962;27;45475;-71
2021/07/09 07:55:17;;;;;;;;;11.50;8.25;;;;;-145.01;100.00;59511.53;5075665;28;45374;-71
2021/07/09 07:57:44;;;;;;;;;14.00;11.75;;;;;-145.01;100.00;59511.53;5076046;27;45376;-72
2021/07/09 08:00:11;;;;;;;;;13.50;11.25;;;;;-145.01;100.00;59511.53;5078692;27;45421;-72
2021/07/09 08:02:36;;;;;;;;;18.50;14.75;;;;;-145.01;100.00;59511.53;5076533;27;45414;-72
2021/07/09 08:05:02;;;;;;;;;16.75;16.75;;;;;-145.01;100.00;59511.53;5076761;27;45392;-71
2021/07/09 08:07:27;;;;;;;;;11.25;9.50;;;;;-145.01;100.00;59511.53;5075611;27;45364;-71
2021/07/09 08:09:53;;;;;;;;;10.25;10.25;;;;;-145.01;100.00;59511.53;5075564;27;45533;-70
2021/07/09 08:12:18;;;;;;;;;12.00;8.50;;;;;-145.01;100.00;59511.53;5076559;27;46263;-70
2021/07/09 08:14:46;;;;;;;;;10.50;9.00;;;;;-145.01;100.00;59511.53;5076860;27;45595;-71
2021/07/09 08:17:12;;;;;;;;;12.00;11.25;;;;;-145.01;100.00;59511.53;5076430;27;45340;-71
2021/07/09 08:19:37;;;;;;;;;12.25;11.50;;;;;-145.01;100.00;59511.53;5076752;27;45465;-72
2021/07/09 08:22:03;;;;;;;;;13.75;11.25;;;;;-145.01;100.00;59511.53;5074908;28;46234;-71
2021/07/09 08:24:28;;;;;;;;;7.75;6.00;;;;;-145.01;100.00;59511.53;5076255;27;45253;-71
2021/07/09 08:26:54;;;;;;;;;10.00;7.00;;;;;-145.01;100.00;59511.53;5076898;27;45374;-71
2021/07/09 08:29:19;;;;;;;;;8.25;8.00;;;;;-145.01;100.00;59511.53;5059443;28;45544;-72
2021/07/09 08:31:45;;;;;;;;;10.25;10.00;;;;;-145.01;100.00;59511.53;5059449;27;46707;-72
2021/07/09 08:34:10;;;;;;;;;9.00;7.67;;;;;-145.01;100.00;59511.53;5075048;28;45508;-71
2021/07/09 08:36:35;;;;;;;;;12.50;11.75;;;;;-145.01;100.00;59511.53;5076001;27;45315;-71
2021/07/09 08:39:01;;;;;;;;;10.00;8.33;;;;;-145.01;100.00;59511.53;5076032;27;45361;-70
2021/07/09 08:41:27;;;;;;;;;13.50;11.00;;;;;-145.01;100.00;59511.53;5076418;27;45544;-72
2021/07/09 08:43:52;;;;;;;;;11.00;9.00;;;;;-145.01;100.00;59511.53;5059105;27;45200;-73
2021/07/09 08:46:17;;;;;;;;;11.00;10.00;;;;;-145.01;100.00;59511.53;5075249;27;45408;-72
2021/07/09 08:48:44;;;;;;;;;8.00;7.00;;;;;-145.01;100.00;59511.53;5058429;28;45312;-71
2021/07/09 08:51:11;;;;;;;;;12.25;10.50;;;;;-145.01;100.00;59511.53;5075241;27;45678;-71
2021/07/09 08:53:38;;;;;;;;;24.25;16.75;;;;;-145.01;100.00;59511.53;5075824;27;45952;-73
2021/07/09 08:56:04;;;;;;;;;10.33;7.67;;;;;-145.01;100.00;59511.53;5077892;27;45457;-72
2021/07/09 08:58:29;;;;;;;;;9.67;9.67;;;;;-145.01;100.00;59511.53;5072068;27;45385;-73
2021/07/09 09:00:55;;;;;;;;;8.25;7.50;;;;;-145.01;100.00;59511.53;5074289;27;45532;-71
2021/07/09 09:03:24;;;;;;;;;7.25;7.25;;;;;-145.01;100.00;59511.53;5076185;27;45583;-71
2021/07/09 09:05:51;;;;;;;;;12.00;12.00;;;;;-145.01;100.00;59511.53;5076334;27;45389;-72
2021/07/09 09:08:20;;;;;;;;;23.00;20.00;;;;;-145.01;100.00;59511.53;5076339;27;45380;-71
2021/07/09 09:10:52;;;;;;;;;7.67;6.67;;;;;-145.01;100.00;59511.53;5059331;27;46249;-71
2021/07/09 09:13:21;;;;;;;;;12.25;12.25;;;;;-145.01;100.00;59511.53;5071843;27;45425;-70
2021/07/09 09:16:00;;;;;;;;;14.25;12.00;;;;;-145.01;100.00;59511.53;5076370;27;45495;-72
2021/07/09 09:18:29;;;;;;;;;6.50;5.00;;;;;-145.01;100.00;59511.53;5075907;27;45498;-72
2021/07/09 09:20:59;;;;;;;;;8.33;8.00;;;;;-145.01;100.00;59511.53;5075731;27;47048;-72
2021/07/09 09:23:26;;;;;;;;;9.25;9.25;;;;;-145.01;100.00;59511.53;5075606;27;45531;-72
2021/07/09 09:25:52;;;;;;;;;27.25;25.00;;;;;-145.01;100.00;59511.53;5076824;27;47464;-72
2021/07/09 09:28:17;;;;;;;;;22.00;16.00;;;;;-145.01;100.00;59511.53;5075036;27;45505;-71
2021/07/09 09:30:45;;;;;;;;;11.33;10.33;;;;;-145.01;100.00;59511.53;5076149;27;46204;-72
2021/07/09 09:33:12;;;;;;;;;8.00;8.00;;;;;-145.01;100.00;59511.53;5075496;27;45437;-71
2021/07/09 09:35:42;;;;;;;;;12.00;9.67;;;;;-145.01;100.00;59511.53;5075521;27;45274;-72
2021/07/09 09:38:10;;;;;;;;;12.50;12.00;;;;;-145.01;100.00;59511.53;5074827;27;45553;-72
2021/07/09 09:40:38;;;;;;;;;7.75;7.75;;;;;-145.01;100.00;59511.53;5074732;27;45593;-71
2021/07/09 09:43:12;;;;;;;;;11.75;9.25;;;;;-145.01;100.00;59511.53;5074713;28;45417;-71
2021/07/09 09:45:39;;;;;;;;;7.00;7.00;;;;;-145.01;100.00;59511.53;5075091;27;47205;-72
2021/07/09 09:48:08;;;;;;;;;6.00;5.00;;;;;-145.01;100.00;59511.53;5074701;27;45489;-72
2021/07/09 09:50:51;;;;;;;;;7.00;6.00;;;;;-145.01;100.00;59511.53;5074472;27;46317;-74
2021/07/09 09:53:32;;;;;;;;;7.00;6.00;;;;;-145.01;100.00;59511.53;5056855;28;46173;-73
2021/07/09 09:56:08;;;;;;;;;8.67;7.00;;;;;-145.01;100.00;59511.53;5061423;27;45720;-72
2021/07/09 09:58:34;;;;;;;;;8.00;8.00;;;;;-145.01;100.00;59511.53;5075001;27;45486;-73
2021/07/09 10:00:59;;;;;;;;;6.00;6.00;;;;;-145.01;100.00;59511.53;5073646;28;47638;-72
2021/07/09 10:03:25;;;;;;;;;9.00;7.33;;;;;-145.01;100.00;59511.53;5074335;27;45529;-73
2021/07/09 10:05:51;;;;;;;;;4.67;4.33;;;;;-145.01;100.00;59511.53;5074684;27;45489;-72
2021/07/09 10:08:19;;;;;;;;;7.00;7.00;;;;;-145.01;100.00;59511.53;5074701;27;45280;-73
2021/07/09 10:10:46;;;;;;;;;9.00;7.33;;;;;-145.01;100.00;59511.53;5057981;27;46243;-72
2021/07/09 10:13:14;;;;;;;;;8.00;7.00;;;;;-145.01;100.00;59511.53;5050783;28;45259;-71
2021/07/09 10:15:40;;;;;;;;;7.33;7.33;;;;;-145.01;100.00;59511.53;5073954;27;45406;-72
2021/07/09 10:18:10;;;;;;;;;9.00;6.67;;;;;-145.01;100.00;59511.53;5074087;27;45329;-70
2021/07/09 10:20:35;;;;;;;;;5.00;5.00;;;;;-145.01;100.00;59511.53;5074153;27;46239;-71
2021/07/09 10:23:01;;;;;;;;;11.75;11.25;;;;;-145.01;100.00;59511.53;5073904;27;45400;-75
2021/07/09 10:25:27;;;;;;;;;11.00;9.00;;;;;-145.01;100.00;59511.53;5074101;27;45430;-71
2021/07/09 10:27:53;;;;;;;;;8.00;7.00;;;;;-145.01;100.00;59511.53;5073752;27;45276;-71
2021/07/09 10:30:19;;;;;;;;;5.00;4.00;;;;;-145.01;100.00;59511.53;5074598;27;45702;-72
2021/07/09 10:32:48;;;;;;;;;6.00;6.00;;;;;-145.01;100.00;59511.53;5073647;27;45512;-71
2021/07/09 10:35:49;;;;;;;;;7.00;7.00;;;;;-145.01;100.00;59511.53;5071448;27;45619;-72
2021/07/09 10:38:18;;;;;;;;;14.50;13.50;;;;;-145.01;100.00;59511.53;5018648;28;45492;-71
2021/07/09 10:40:45;;;;;;;;;7.00;7.00;;;;;-145.01;100.00;59511.53;5030213;28;46711;-70
2021/07/09 10:43:10;;;;;;;;;14.50;12.00;;;;;-145.01;100.00;59511.53;5030399;28;45477;-72
2021/07/09 10:45:38;;;;;;;;;9.75;9.75;;;;;-145.01;100.00;59511.53;5030469;28;45229;-70
2021/07/09 10:48:17;;;;;;;;;9.25;8.25;;;;;-145.01;100.00;59511.53;5030838;28;45324;-71
2021/07/09 10:50:53;;;;;;;;;5.67;4.33;;;;;-145.01;100.00;59511.53;5032106;28;45411;-72
2021/07/09 10:53:19;;;;;;;;;7.00;6.00;;;;;-145.01;100.00;59511.53;5033563;28;45586;-71
2021/07/09 10:55:57;;;;;;;;;6.33;6.33;;;;;-145.01;100.00;59511.53;5018848;28;45386;-71
2021/07/09 10:58:24;;;;;;;;;11.25;9.50;;;;;-145.01;100.00;59511.53;5031585;28;45331;-71
2021/07/09 11:00:55;;;;;;;;;8.33;8.33;;;;;-145.01;100.00;59511.53;5034805;28;47162;-76